Time;durP1;ratioP1;P1;durP2;ratioP2;P2;SDS_P1;SDS_P2;PMS_P1;PMS_P2;Temp;Humidity;BMP_temperature;BMP_pressure;BME280_temperature;BME280_humidity;BME280_pressure;Samples;Min_cycle;Max_cycle;Signal;HPM_P1;HPM_P2
2022/09/30 05:35:43;;;;;;;;;;;;;;;16.64;93.06;99499.47;4988258;28;1644;-60
2022/09/30 05:38:10;;;;;;;;;;;;;;;16.75;91.87;99491.50;5015341;28;783;-60
2022/09/30 05:40:41;;;;;;;;;;;;;;;16.88;90.97;99480.31;5014672;28;878;-60
2022/09/30 05:43:08;;;;;;;;;;;;;;;17.07;90.01;99492.38;5014660;28;815;-60
2022/09/30 05:45:37;;;;;;;;;;;;;;;17.24;88.69;99499.34;5014566;28;854;-60
2022/09/30 05:48:04;;;;;;;;;;;;;;;17.45;87.39;99508.16;5014402;28;1979;-60
2022/09/30 05:50:31;;;;;;;;;;;;;;;17.63;85.81;99507.47;5014505;28;866;-60
2022/09/30 05:52:57;;;;;;;;;;;;;;;17.84;84.50;99506.69;5014490;28;966;-60
2022/09/30 05:55:24;;;;;;;;;;;;;;;17.95;82.97;99503.47;5014317;28;896;-60
2022/09/30 05:57:51;;;;;;;;;;;;;;;18.06;81.96;99514.97;5013010;28;739;-60
2022/09/30 06:00:18;;;;;;;;;;;;;;;18.18;81.23;99521.72;5014326;28;835;-60
2022/09/30 06:02:45;;;;;;;;;;;;;;;18.33;80.33;99528.28;5014056;28;831;-60
2022/09/30 06:05:12;;;;;;;;;;;;;;;18.49;79.53;99515.25;5014166;28;831;-60
2022/09/30 06:07:38;;;;;;;;;;;;;;;18.67;78.91;99517.28;5014336;28;856;-60
2022/09/30 06:10:06;;;;;;;;;;;;;;;18.86;78.03;99523.69;5014015;28;1878;-60
2022/09/30 06:12:35;;;;;;;;;;;;;;;19.08;77.31;99517.94;5014040;28;799;-60
2022/09/30 06:15:02;;;;;;;;;;;;;;;19.31;76.55;99519.31;5013928;28;941;-57
2022/09/30 06:17:29;;;;;;;;;;;;;;;19.49;75.34;99519.28;5013897;28;843;-57
2022/09/30 06:19:56;;;;;;;;;;;;;;;19.67;73.88;99526.88;5013964;28;859;-57
2022/09/30 06:22:23;;;;;;;;;;;;;;;19.81;73.02;99524.69;5012583;28;1264;-57
2022/09/30 06:24:50;;;;;;;;;;;;;;;19.93;72.12;99535.69;5013814;28;851;-57
2022/09/30 06:27:16;;;;;;;;;;;;;;;20.24;70.70;99536.63;5013780;28;811;-58
2022/09/30 06:29:43;;;;;;;;;;;;;;;20.59;68.29;99546.13;5013644;28;1961;-58
2022/09/30 06:32:10;;;;;;;;;;;;;;;20.70;67.30;99547.63;5013656;28;953;-58
2022/09/30 06:34:36;;;;;;;;;;;;;;;20.61;67.51;99551.25;5013664;28;815;-58
2022/09/30 06:37:03;;;;;;;;;;;;;;;20.70;67.18;99547.63;5013265;28;1148;-56
2022/09/30 06:39:29;;;;;;;;;;;;;;;20.74;66.66;99546.19;5013570;28;792;-56
2022/09/30 06:41:56;;;;;;;;;;;;;;;20.87;66.56;99547.94;5013485;28;811;-56
2022/09/30 06:44:23;;;;;;;;;;;;;;;21.16;66.29;99564.88;5013436;28;882;-57
2022/09/30 06:46:49;;;;;;;;;;;;;;;21.50;64.84;99556.34;5013403;28;831;-57
2022/09/30 06:49:16;;;;;;;;;;;;;;;21.72;63.23;99558.75;5013317;28;1910;-57
2022/09/30 06:51:42;;;;;;;;;;;;;;;21.90;62.21;99557.78;5013436;28;827;-57
2022/09/30 06:54:10;;;;;;;;;;;;;;;22.40;60.64;99550.13;5013443;28;899;-57
2022/09/30 06:56:37;;;;;;;;;;;;;;;23.19;58.28;99558.78;5013215;28;858;-57
2022/09/30 06:59:03;;;;;;;;;;;;;;;24.34;54.15;99554.41;5013207;28;803;-57
2022/09/30 07:01:30;;;;;;;;;;;;;;;25.23;52.00;99558.97;5013155;28;901;-57
2022/09/30 07:04:02;;;;;;;;;;;;;;;26.01;48.90;99551.84;5013287;28;850;-57
2022/09/30 07:06:30;;;;;;;;;;;;;;;26.46;47.66;99555.41;5012921;28;867;-57
2022/09/30 07:08:55;;;;;;;;;;;;;;;26.77;47.06;99562.03;5012859;28;1910;-57
2022/09/30 07:11:23;;;;;;;;;;;;;;;27.26;45.47;99553.81;5012982;28;882;-57
2022/09/30 07:13:50;;;;;;;;;;;;;;;27.39;43.91;99558.13;5012768;28;961;-57
2022/09/30 07:16:17;;;;;;;;;;;;;;;27.29;43.81;99560.53;5012886;28;815;-57
2022/09/30 07:18:45;;;;;;;;;;;;;;;27.41;43.60;99564.06;5012813;28;906;-57
2022/09/30 07:21:12;;;;;;;;;;;;;;;27.81;42.70;99570.22;5012740;28;827;-57
2022/09/30 07:23:46;;;;;;;;;;;;;;;27.97;42.65;99571.41;5012640;28;942;-57
2022/09/30 07:26:17;;;;;;;;;;;;;;;28.23;41.68;99568.84;5012655;28;929;-57
2022/09/30 07:28:44;;;;;;;;;;;;;;;28.27;41.38;99577.06;5012547;28;1886;-57
2022/09/30 07:31:15;;;;;;;;;;;;;;;28.24;41.58;99570.38;5012559;28;1146;-58
2022/09/30 07:33:42;;;;;;;;;;;;;;;28.40;41.11;99574.34;5012695;28;917;-58
2022/09/30 07:36:10;;;;;;;;;;;;;;;28.30;40.63;99579.63;5012336;28;1407;-58
2022/09/30 07:38:38;;;;;;;;;;;;;;;28.40;40.83;99580.03;5012574;28;858;-58
2022/09/30 07:41:06;;;;;;;;;;;;;;;28.44;39.63;99583.38;5012457;28;862;-58
2022/09/30 07:43:39;;;;;;;;;;;;;;;28.48;40.27;99585.88;5012443;28;869;-58
2022/09/30 07:46:06;;;;;;;;;;;;;;;28.74;39.70;99576.06;5011748;28;965;-58
2022/09/30 07:51:13;;;;;;;;;;;;;;;28.43;39.60;99578.19;5012526;28;696;-59
2022/09/30 07:53:41;;;;;;;;;;;;;;;28.03;40.66;99577.81;5012117;28;976;-59
2022/09/30 07:56:09;;;;;;;;;;;;;;;28.15;40.84;99573.56;5012542;28;799;-59
2022/09/30 07:58:37;;;;;;;;;;;;;;;28.46;39.91;99575.06;5012168;28;881;-59
2022/09/30 08:01:05;;;;;;;;;;;;;;;28.74;39.57;99576.84;5012090;28;850;-59
2022/09/30 08:03:37;;;;;;;;;;;;;;;28.86;38.99;99586.78;5012118;28;843;-59
2022/09/30 08:06:09;;;;;;;;;;;;;;;28.57;39.28;99588.44;5011995;28;941;-59
2022/09/30 08:08:35;;;;;;;;;;;;;;;28.79;39.56;99593.06;5011873;28;1983;-59
2022/09/30 08:11:02;;;;;;;;;;;;;;;28.91;39.31;99596.53;5011996;28;854;-59
2022/09/30 08:13:29;;;;;;;;;;;;;;;29.10;39.47;99594.53;5011925;28;885;-60
2022/09/30 08:15:56;;;;;;;;;;;;;;;29.03;39.32;99595.09;5011871;28;858;-59
2022/09/30 08:18:23;;;;;;;;;;;;;;;29.11;39.84;99593.22;5011861;28;886;-59
2022/09/30 08:20:50;;;;;;;;;;;;;;;29.20;39.06;99594.16;5011797;28;934;-59
2022/09/30 08:23:17;;;;;;;;;;;;;;;29.26;39.45;99589.91;5011935;28;807;-59
2022/09/30 08:25:43;;;;;;;;;;;;;;;29.21;38.97;99589.97;5011805;28;819;-59
2022/09/30 08:28:09;;;;;;;;;;;;;;;28.93;39.85;99602.47;5011718;28;1890;-59
2022/09/30 08:30:37;;;;;;;;;;;;;;;28.79;40.21;99601.59;5011694;28;835;-59
2022/09/30 08:33:03;;;;;;;;;;;;;;;29.25;39.79;99607.53;5012091;28;974;-58
2022/09/30 08:35:30;;;;;;;;;;;;;;;29.23;39.04;99610.13;5011792;28;882;-58
2022/09/30 08:37:57;;;;;;;;;;;;;;;29.32;39.76;99609.78;5011541;28;1354;-58
2022/09/30 08:40:24;;;;;;;;;;;;;;;29.24;39.59;99612.44;5011661;28;855;-57
2022/09/30 08:43:00;;;;;;;;;;;;;;;28.59;40.88;99614.25;5011833;28;864;-57
2022/09/30 08:45:30;;;;;;;;;;;;;;;28.70;40.92;99611.28;5011958;28;803;-57
2022/09/30 08:47:56;;;;;;;;;;;;;;;28.63;41.32;99606.16;5011580;28;931;-57
2022/09/30 08:50:35;;;;;;;;;;;;;;;28.66;41.19;99615.72;5011874;28;1977;-57
2022/09/30 08:53:11;;;;;;;;;;;;;;;28.41;41.69;99609.22;5011564;28;1177;-57
2022/09/30 08:55:44;;;;;;;;;;;;;;;28.49;41.86;99602.44;5011420;28;823;-57
2022/09/30 08:58:16;;;;;;;;;;;;;;;28.52;42.12;99605.53;5014753;28;815;-57
2022/09/30 09:00:42;;;;;;;;;;;;;;;28.47;42.06;99609.94;5015290;28;881;-57
2022/09/30 09:03:10;;;;;;;;;;;;;;;28.55;42.28;99601.59;5015346;28;815;-57
2022/09/30 09:05:37;;;;;;;;;;;;;;;28.70;42.16;99602.75;5015322;28;831;-57
2022/09/30 09:08:25;;;;;;;;;;;;;;;28.58;42.75;99604.16;5015133;28;1941;-57
2022/09/30 09:10:57;;;;;;;;;;;;;;;28.47;42.98;99607.09;5014948;28;1423;-58
2022/09/30 09:13:34;;;;;;;;;;;;;;;28.64;42.99;99604.88;5015765;28;862;-57
2022/09/30 09:16:30;;;;;;;;;;;;;;;28.72;42.47;99602.22;5015099;28;811;-57
2022/09/30 09:19:06;;;;;;;;;;;;;;;28.68;42.81;99602.50;4973762;28;1102;-57
2022/09/30 09:21:32;;;;;;;;;;;;;;;28.60;43.23;99597.94;4973922;28;861;-58
2022/09/30 09:24:00;;;;;;;;;;;;;;;28.66;43.24;99593.75;4973909;28;1087;-57
2022/09/30 09:26:33;;;;;;;;;;;;;;;28.70;43.39;99602.75;4973852;28;929;-57
2022/09/30 09:29:14;;;;;;;;;;;;;;;28.71;42.93;99595.75;4973624;28;1955;-57
2022/09/30 09:31:41;;;;;;;;;;;;;;;28.74;43.25;99595.97;4973509;28;1042;-57
2022/09/30 09:34:11;;;;;;;;;;;;;;;28.78;43.16;99599.28;4957691;28;890;-57
2022/09/30 09:37:00;;;;;;;;;;;;;;;28.68;43.09;99611.03;4973220;28;1682;-57
2022/09/30 09:39:45;;;;;;;;;;;;;;;28.67;43.39;99605.88;4973375;28;2210;-57
2022/09/30 09:42:29;;;;;;;;;;;;;;;28.82;43.22;99605.44;4973537;28;1085;-58
2022/09/30 09:44:58;;;;;;;;;;;;;;;28.98;43.05;99615.09;4973717;28;897;-57
2022/09/30 09:47:25;;;;;;;;;;;;;;;29.11;43.03;99613.13;4973547;28;803;-57
2022/09/30 09:49:59;;;;;;;;;;;;;;;29.38;42.11;99616.16;4973307;28;1980;-58
2022/09/30 09:52:44;;;;;;;;;;;;;;;29.36;42.06;99607.41;4973303;28;916;-57
2022/09/30 09:55:12;;;;;;;;;;;;;;;29.42;41.97;99595.91;4991369;28;1067;-58
2022/09/30 09:57:40;;;;;;;;;;;;;;;29.17;42.69;99601.69;5014114;28;941;-58
2022/09/30 10:03:22;;;;;;;;;;;;;;;29.55;42.05;99595.22;5014214;28;755;-58
2022/09/30 10:06:00;;;;;;;;;;;;;;;29.63;42.31;99599.72;5014175;28;968;-58
2022/09/30 10:08:30;;;;;;;;;;;;;;;30.07;40.85;99597.50;5013963;28;1883;-58
2022/09/30 10:11:02;;;;;;;;;;;;;;;30.03;40.98;99599.16;5014002;28;1247;-58
2022/09/30 10:13:40;;;;;;;;;;;;;;;29.89;41.18;99601.19;5013941;28;975;-57
2022/09/30 10:16:26;;;;;;;;;;;;;;;29.85;41.51;99598.66;5013932;28;938;-58
2022/09/30 10:18:53;;;;;;;;;;;;;;;29.95;41.35;99601.09;5014150;28;950;-58
2022/09/30 10:21:23;;;;;;;;;;;;;;;30.11;40.35;99606.50;5014245;28;906;-58
2022/09/30 10:23:49;;;;;;;;;;;;;;;30.00;40.91;99606.72;5013829;28;981;-58
2022/09/30 10:26:18;;;;;;;;;;;;;;;30.32;40.40;99603.84;5013704;28;866;-58
2022/09/30 10:28:47;;;;;;;;;;;;;;;30.59;39.86;99600.25;5013474;28;1942;-57
2022/09/30 10:31:22;;;;;;;;;;;;;;;30.59;39.69;99598.16;5013754;28;999;-58
2022/09/30 10:37:00;;;;;;;;;;;;;;;30.45;39.79;99583.13;5006615;28;1192;-58
2022/09/30 10:39:29;;;;;;;;;;;;;;;30.05;40.45;99582.28;5013552;28;807;-58
2022/09/30 10:42:13;;;;;;;;;;;;;;;30.24;40.30;99582.22;5013757;28;838;-58
2022/09/30 10:44:45;;;;;;;;;;;;;;;30.74;39.88;99574.78;5013425;28;827;-58
2022/09/30 10:47:16;;;;;;;;;;;;;;;31.08;38.58;99571.28;5013311;28;910;-58
2022/09/30 10:49:46;;;;;;;;;;;;;;;30.99;38.88;99571.72;5013243;28;1910;-58
2022/09/30 10:52:21;;;;;;;;;;;;;;;30.98;38.56;99568.09;5013272;28;807;-58
2022/09/30 10:54:55;;;;;;;;;;;;;;;31.13;38.00;99562.59;5013158;28;1216;-58
2022/09/30 10:57:27;;;;;;;;;;;;;;;30.90;38.00;99565.16;5013391;28;859;-58
2022/09/30 11:00:05;;;;;;;;;;;;;;;30.60;39.02;99570.41;5013074;28;929;-59
2022/09/30 11:02:38;;;;;;;;;;;;;;;30.78;38.59;99560.22;5013056;28;934;-59
2022/09/30 11:05:05;;;;;;;;;;;;;;;31.12;37.36;99557.44;5013354;28;858;-58
2022/09/30 11:07:43;;;;;;;;;;;;;;;31.30;36.86;99559.38;5013515;28;842;-59
2022/09/30 11:10:22;;;;;;;;;;;;;;;31.38;36.79;99558.66;5012920;28;1971;-59
2022/09/30 11:13:12;;;;;;;;;;;;;;;31.40;36.28;99550.31;5013084;28;885;-59
2022/09/30 11:15:55;;;;;;;;;;;;;;;31.65;35.89;99556.50;5012745;28;1569;-59
2022/09/30 11:18:26;;;;;;;;;;;;;;;31.68;35.78;99561.84;4995154;28;1336;-58
2022/09/30 11:21:06;;;;;;;;;;;;;;;32.00;35.08;99563.69;5012172;28;869;-58
2022/09/30 11:23:35;;;;;;;;;;;;;;;32.19;34.07;99560.63;5012761;28;827;-59
2022/09/30 11:26:09;;;;;;;;;;;;;;;31.88;34.41;99559.59;5012721;28;810;-59
2022/09/30 11:28:43;;;;;;;;;;;;;;;31.95;35.01;99556.78;5011493;28;1890;-59
2022/09/30 11:31:14;;;;;;;;;;;;;;;32.07;34.37;99548.72;4994968;28;1296;-59
2022/09/30 11:33:50;;;;;;;;;;;;;;;32.43;34.15;99562.28;5012542;28;814;-58
2022/09/30 11:36:36;;;;;;;;;;;;;;;32.52;33.57;99561.03;5012571;28;787;-58
2022/09/30 11:39:21;;;;;;;;;;;;;;;32.75;32.98;99567.69;4973705;28;858;-59
2022/09/30 11:44:57;;;;;;;;;;;;;;;33.02;33.43;99567.41;4973477;28;618;-59
2022/09/30 11:47:40;;;;;;;;;;;;;;;33.04;32.59;99569.72;4973328;28;838;-60
2022/09/30 11:50:21;;;;;;;;;;;;;;;32.98;32.21;99569.13;4973333;28;1954;-59
2022/09/30 11:52:51;;;;;;;;;;;;;;;33.46;31.69;99567.41;4973292;28;812;-59
2022/09/30 11:55:31;;;;;;;;;;;;;;;34.09;31.33;99554.69;4973163;28;954;-59
2022/09/30 11:58:03;;;;;;;;;;;;;;;33.89;30.23;99554.31;4973161;28;878;-60
2022/09/30 12:00:31;;;;;;;;;;;;;;;33.38;30.74;99563.75;4973005;28;930;-60
2022/09/30 12:03:11;;;;;;;;;;;;;;;33.34;30.34;99563.34;4973135;28;871;-59
2022/09/30 12:05:44;;;;;;;;;;;;;;;33.61;30.43;99551.59;4973248;28;935;-60
2022/09/30 12:21:02;;;;;;;;;;;;;;;33.26;29.85;99553.97;4932679;29;619;-59
2022/09/30 12:23:35;;;;;;;;;;;;;;;33.42;29.47;99558.41;4932624;29;828;-60
2022/09/30 12:26:03;;;;;;;;;;;;;;;33.53;29.20;99560.16;4932261;29;1049;-60
2022/09/30 12:31:33;;;;;;;;;;;;;;;33.76;28.82;99560.22;4935294;29;1128;-59
2022/09/30 12:34:13;;;;;;;;;;;;;;;33.19;29.57;99566.19;4938797;29;909;-60
2022/09/30 12:36:49;;;;;;;;;;;;;;;33.75;29.37;99565.16;4940391;29;1472;-60
2022/09/30 12:39:35;;;;;;;;;;;;;;;33.92;28.24;99575.31;4957619;29;1018;-60
2022/09/30 12:42:24;;;;;;;;;;;;;;;33.92;28.11;99573.22;4957808;29;983;-60
2022/09/30 12:45:08;;;;;;;;;;;;;;;34.38;27.46;99563.09;4957964;29;918;-59
2022/09/30 12:47:44;;;;;;;;;;;;;;;34.21;27.49;99566.56;4957643;29;788;-59
2022/09/30 12:50:13;;;;;;;;;;;;;;;34.27;27.71;99570.75;4961731;28;1926;-59
2022/09/30 12:52:40;;;;;;;;;;;;;;;34.11;27.34;99563.47;4998620;28;854;-59
2022/09/30 12:55:18;;;;;;;;;;;;;;;33.83;27.61;99573.03;4998479;28;830;-60
2022/09/30 12:57:46;;;;;;;;;;;;;;;32.94;27.87;99578.06;4998648;28;885;-60
2022/09/30 13:00:14;;;;;;;;;;;;;;;33.20;28.09;99576.28;4999078;28;803;-59
2022/09/30 13:05:51;;;;;;;;;;;;;;;33.67;27.59;99578.75;4998476;28;622;-60
2022/09/30 13:08:20;;;;;;;;;;;;;;;33.86;27.23;99583.34;4997317;28;1950;-60
2022/09/30 13:10:58;;;;;;;;;;;;;;;33.89;27.33;99582.22;4998288;28;927;-60
2022/09/30 13:13:24;;;;;;;;;;;;;;;34.11;27.46;99577.81;4998208;28;914;-60
2022/09/30 13:16:02;;;;;;;;;;;;;;;34.48;26.84;99572.63;4998276;28;808;-60
2022/09/30 13:18:32;;;;;;;;;;;;;;;34.35;26.59;99580.13;4998136;28;1009;-60
2022/09/30 13:21:04;;;;;;;;;;;;;;;34.40;26.63;99589.09;4998490;28;846;-60
2022/09/30 13:23:41;;;;;;;;;;;;;;;34.25;26.71;99584.16;4997024;28;1693;-60
2022/09/30 13:26:27;;;;;;;;;;;;;;;34.09;26.97;99595.56;4998365;28;819;-60
2022/09/30 13:29:16;;;;;;;;;;;;;;;33.88;27.08;99581.41;4998270;28;1882;-60
2022/09/30 13:31:46;;;;;;;;;;;;;;;33.93;27.39;99594.06;4998231;28;1740;-60
2022/09/30 13:50:45;;;;;;;;;;;;;;;33.20;28.48;99604.91;4995072;28;1898;-60
2022/09/30 13:53:15;;;;;;;;;;;;;;;33.58;28.07;99610.00;4994790;28;914;-60
2022/09/30 13:55:46;;;;;;;;;;;;;;;33.61;27.97;99606.03;4994769;28;885;-60
2022/09/30 13:58:33;;;;;;;;;;;;;;;33.29;28.14;99604.41;4993465;28;1389;-60
2022/09/30 14:01:20;;;;;;;;;;;;;;;33.19;28.29;99603.41;4994670;28;946;-60
2022/09/30 14:03:49;;;;;;;;;;;;;;;33.23;28.58;99595.97;4994451;28;915;-59
2022/09/30 14:06:35;;;;;;;;;;;;;;;32.89;28.74;99599.03;4994697;28;834;-59
2022/09/30 14:09:11;;;;;;;;;;;;;;;32.64;29.29;99596.59;4994371;28;1894;-59
2022/09/30 14:11:59;;;;;;;;;;;;;;;32.66;29.04;99599.66;4994745;28;799;-59
2022/09/30 14:14:32;;;;;;;;;;;;;;;32.90;28.98;99589.09;4994797;28;882;-59
2022/09/30 14:16:59;;;;;;;;;;;;;;;32.79;28.97;99590.19;4994627;28;894;-59
2022/09/30 14:19:37;;;;;;;;;;;;;;;32.94;28.65;99592.38;4994379;28;874;-59
2022/09/30 14:22:09;;;;;;;;;;;;;;;33.04;28.49;99589.75;4994510;28;811;-59
2022/09/30 14:36:49;;;;;;;;;;;;;;;31.56;27.99;99594.88;4994090;28;708;-59
2022/09/30 14:39:24;;;;;;;;;;;;;;;31.11;28.54;99596.63;4994668;28;791;-59
2022/09/30 14:41:53;;;;;;;;;;;;;;;31.14;28.68;99598.38;4993996;28;823;-58
2022/09/30 14:44:21;;;;;;;;;;;;;;;31.11;28.91;99587.28;4993859;28;946;-58
2022/09/30 14:46:48;;;;;;;;;;;;;;;30.95;29.09;99600.59;4974403;28;967;-59
2022/09/30 14:49:17;;;;;;;;;;;;;;;30.77;29.57;99602.22;4974266;28;1971;-58
2022/09/30 14:51:47;;;;;;;;;;;;;;;30.64;29.66;99605.06;4974657;28;808;-58
2022/09/30 14:54:21;;;;;;;;;;;;;;;30.68;28.95;99614.84;4973064;28;1029;-58
2022/09/30 14:56:49;;;;;;;;;;;;;;;30.69;29.15;99613.53;4974451;28;807;-58
2022/09/30 14:59:18;;;;;;;;;;;;;;;30.54;28.82;99613.31;4974188;28;927;-58
2022/09/30 15:01:46;;;;;;;;;;;;;;;30.38;28.77;99617.97;4974172;28;934;-58
2022/09/30 15:07:16;;;;;;;;;;;;;;;29.91;29.56;99622.13;4974157;28;728;-58
2022/09/30 15:09:46;;;;;;;;;;;;;;;29.67;29.84;99625.81;4974564;28;1903;-58
2022/09/30 15:24:24;;;;;;;;;;;;;;;27.73;33.98;99649.50;4974010;28;641;-58
2022/09/30 15:26:52;;;;;;;;;;;;;;;27.47;34.58;99655.59;4973715;28;827;-58
2022/09/30 15:29:18;;;;;;;;;;;;;;;27.25;35.08;99659.31;4974210;28;1899;-59
2022/09/30 15:31:46;;;;;;;;;;;;;;;27.06;35.10;99661.94;4972347;28;1173;-58
2022/09/30 15:34:18;;;;;;;;;;;;;;;26.82;35.88;99668.97;4973904;28;823;-59
2022/09/30 15:36:55;;;;;;;;;;;;;;;26.58;36.05;99666.69;4972328;28;1219;-59
2022/09/30 15:39:22;;;;;;;;;;;;;;;26.27;36.75;99662.81;4973790;28;850;-59
2022/09/30 15:41:50;;;;;;;;;;;;;;;25.93;37.58;99661.28;4973452;28;823;-59
2022/09/30 15:44:18;;;;;;;;;;;;;;;25.58;38.36;99670.94;4973291;28;929;-59
2022/09/30 15:47:14;;;;;;;;;;;;;;;25.17;39.31;99674.88;5012147;28;1404;-59
2022/09/30 15:49:46;;;;;;;;;;;;;;;24.64;40.19;99687.66;5003793;28;1975;-58
2022/09/30 15:52:29;;;;;;;;;;;;;;;24.20;41.01;99686.78;5012394;28;994;-57
2022/09/30 15:54:57;;;;;;;;;;;;;;;23.82;41.81;99693.59;5012267;28;843;-57
2022/09/30 15:57:59;;;;;;;;;;;;;;;23.57;42.36;99701.50;5012261;28;772;-57
2022/09/30 16:00:37;;;;;;;;;;;;;;;23.33;42.51;99695.34;4971100;28;921;-57
2022/09/30 16:03:12;;;;;;;;;;;;;;;23.08;43.33;99700.38;4970959;28;1025;-57
2022/09/30 16:05:40;;;;;;;;;;;;;;;22.87;43.35;99710.81;4970672;28;815;-57
2022/09/30 16:08:08;;;;;;;;;;;;;;;22.65;44.28;99716.88;4970881;28;1002;-57
2022/09/30 16:10:36;;;;;;;;;;;;;;;22.43;44.75;99715.28;4970838;28;1890;-57
2022/09/30 16:13:05;;;;;;;;;;;;;;;22.34;45.07;99721.00;4970833;28;869;-57
2022/09/30 16:15:37;;;;;;;;;;;;;;;22.43;44.61;99718.09;4971085;28;1011;-57
2022/09/30 16:18:04;;;;;;;;;;;;;;;22.39;44.77;99730.81;4970805;28;943;-57
2022/09/30 16:20:29;;;;;;;;;;;;;;;22.25;44.86;99735.16;4970727;28;995;-57
2022/09/30 16:22:58;;;;;;;;;;;;;;;22.05;45.58;99738.63;4970926;28;898;-57
2022/09/30 16:25:26;;;;;;;;;;;;;;;21.80;46.63;99735.09;4970675;28;973;-57
2022/09/30 16:27:56;;;;;;;;;;;;;;;21.59;47.61;99739.00;4970999;28;1013;-57
2022/09/30 16:30:23;;;;;;;;;;;;;;;21.42;48.01;99735.84;4954606;28;1942;-57
2022/09/30 16:32:52;;;;;;;;;;;;;;;21.33;48.78;99736.66;4970546;28;1050;-57
2022/09/30 16:35:20;;;;;;;;;;;;;;;21.40;50.51;99747.56;5007098;28;931;-57
2022/09/30 16:37:47;;;;;;;;;;;;;;;21.52;51.03;99742.97;5011907;28;803;-57
2022/09/30 16:40:23;;;;;;;;;;;;;;;21.59;51.35;99742.63;5011686;28;910;-57
2022/09/30 16:42:50;;;;;;;;;;;;;;;21.73;51.55;99743.13;5012117;28;949;-57
2022/09/30 16:45:17;;;;;;;;;;;;;;;21.73;51.15;99757.97;5011654;28;1215;-57
2022/09/30 16:47:44;;;;;;;;;;;;;;;21.58;51.82;99746.69;5011815;28;1277;-57
2022/09/30 16:50:14;;;;;;;;;;;;;;;21.50;51.09;99761.59;5011590;28;1906;-57
2022/09/30 16:55:43;;;;;;;;;;;;;;;21.26;51.39;99767.94;5011658;28;625;-57
2022/09/30 16:58:11;;;;;;;;;;;;;;;21.18;51.73;99761.88;5011567;28;815;-57
2022/09/30 17:00:41;;;;;;;;;;;;;;;21.11;52.13;99764.28;5011630;28;823;-57
2022/09/30 17:03:08;;;;;;;;;;;;;;;21.00;53.24;99771.19;5011648;28;903;-57
2022/09/30 17:05:35;;;;;;;;;;;;;;;20.95;53.75;99765.44;5011695;28;827;-57
2022/09/30 17:08:02;;;;;;;;;;;;;;;20.91;53.33;99762.81;5011802;28;807;-57
2022/09/30 17:10:30;;;;;;;;;;;;;;;20.92;52.90;99774.84;5011666;28;1882;-57
2022/09/30 17:12:59;;;;;;;;;;;;;;;20.86;52.61;99766.25;5011917;28;858;-57
2022/09/30 17:15:26;;;;;;;;;;;;;;;20.78;52.19;99773.47;5011286;28;915;-57
2022/09/30 17:17:52;;;;;;;;;;;;;;;20.74;51.96;99770.06;5012539;28;913;-57
2022/09/30 17:20:19;;;;;;;;;;;;;;;20.68;51.68;99771.97;5014968;28;952;-57
2022/09/30 17:22:46;;;;;;;;;;;;;;;20.72;51.44;99769.78;5013916;28;907;-57
2022/09/30 17:25:13;;;;;;;;;;;;;;;20.77;51.04;99763.50;5014910;28;922;-57
2022/09/30 17:27:40;;;;;;;;;;;;;;;20.79;50.87;99766.63;5014988;28;827;-57
2022/09/30 17:30:08;;;;;;;;;;;;;;;20.85;51.20;99767.53;5014916;28;1945;-57
2022/09/30 17:32:35;;;;;;;;;;;;;;;20.96;51.05;99764.97;5015064;28;920;-57
2022/09/30 17:35:02;;;;;;;;;;;;;;;21.01;50.79;99764.31;5014713;28;870;-57
2022/09/30 17:37:31;;;;;;;;;;;;;;;21.04;50.75;99764.63;5014804;28;882;-57
2022/09/30 17:39:57;;;;;;;;;;;;;;;21.05;50.32;99777.44;4997172;28;959;-57
2022/09/30 17:45:33;;;;;;;;;;;;;;;20.90;50.49;99791.38;5014521;28;1330;-57
2022/09/30 17:48:00;;;;;;;;;;;;;;;20.59;51.89;99804.44;5014336;28;1322;-57
2022/09/30 17:50:26;;;;;;;;;;;;;;;20.22;53.23;99806.47;5014515;28;1914;-57
2022/09/30 17:52:53;;;;;;;;;;;;;;;19.85;54.58;99814.13;5014663;28;898;-57
2022/09/30 17:55:20;;;;;;;;;;;;;;;19.58;55.34;99821.22;5014435;28;927;-57
2022/09/30 18:09:57;;;;;;;;;;;;;;;19.35;56.08;99820.56;5014469;28;1902;-57
2022/09/30 18:12:24;;;;;;;;;;;;;;;19.30;56.43;99820.38;5014381;28;870;-57
2022/09/30 18:14:52;;;;;;;;;;;;;;;19.28;56.89;99822.84;5014010;28;886;-57
2022/09/30 18:17:19;;;;;;;;;;;;;;;19.29;57.29;99825.22;5014807;28;827;-57
2022/09/30 18:19:45;;;;;;;;;;;;;;;19.31;57.54;99830.31;5013895;28;807;-57
2022/09/30 18:22:12;;;;;;;;;;;;;;;19.27;57.96;99835.31;5014244;28;811;-57
2022/09/30 18:27:24;;;;;;;;;;;;;;;19.08;58.73;99835.25;5013838;28;626;-57
2022/09/30 18:29:52;;;;;;;;;;;;;;;19.06;59.41;99834.16;5013318;28;1897;-57
2022/09/30 18:32:18;;;;;;;;;;;;;;;19.08;59.52;99840.84;5013766;28;915;-57
2022/09/30 18:34:45;;;;;;;;;;;;;;;19.08;59.59;99828.88;5013861;28;827;-57
2022/09/30 18:37:11;;;;;;;;;;;;;;;19.25;59.03;99837.81;5013705;28;816;-57
2022/09/30 18:39:38;;;;;;;;;;;;;;;19.57;57.89;99844.91;5013563;28;889;-56
2022/09/30 18:42:05;;;;;;;;;;;;;;;19.82;56.98;99845.91;5013588;28;906;-57
2022/09/30 18:44:36;;;;;;;;;;;;;;;19.93;56.37;99852.63;5013180;28;1206;-57
2022/09/30 18:47:04;;;;;;;;;;;;;;;19.91;56.43;99862.75;5013680;28;872;-57
2022/09/30 18:49:30;;;;;;;;;;;;;;;19.78;57.01;99872.09;4995848;28;1906;-57
2022/09/30 18:51:57;;;;;;;;;;;;;;;19.68;58.20;99887.28;5013709;28;831;-57
2022/09/30 18:54:24;;;;;;;;;;;;;;;19.35;59.61;99890.63;5013301;28;878;-57
2022/09/30 18:56:50;;;;;;;;;;;;;;;18.96;60.96;99889.31;5013231;28;909;-57
2022/09/30 18:59:17;;;;;;;;;;;;;;;18.57;62.62;99897.91;5013443;28;859;-57
2022/09/30 19:01:45;;;;;;;;;;;;;;;18.32;64.32;99901.59;5013127;28;871;-57
2022/09/30 19:04:12;;;;;;;;;;;;;;;18.19;64.68;99902.88;5013155;28;831;-56
2022/09/30 19:06:41;;;;;;;;;;;;;;;18.15;64.64;99883.44;5011853;28;890;-57
2022/09/30 19:09:07;;;;;;;;;;;;;;;18.29;64.56;99890.56;5013518;28;1973;-56
2022/09/30 19:11:34;;;;;;;;;;;;;;;18.57;64.62;99897.91;5013185;28;874;-57
2022/09/30 19:14:02;;;;;;;;;;;;;;;18.82;63.96;99895.44;5013298;28;898;-57
2022/09/30 19:16:30;;;;;;;;;;;;;;;18.90;64.08;99899.56;5013081;28;867;-57
2022/09/30 19:19:03;;;;;;;;;;;;;;;18.91;64.38;99901.91;5012990;28;950;-57
2022/09/30 19:21:34;;;;;;;;;;;;;;;19.08;65.15;99904.50;5012797;28;835;-57
2022/09/30 19:24:02;;;;;;;;;;;;;;;19.24;65.35;99903.47;5012683;28;906;-57
2022/09/30 19:26:29;;;;;;;;;;;;;;;19.32;65.66;99896.34;5012703;28;950;-57
2022/09/30 19:28:56;;;;;;;;;;;;;;;19.36;66.02;99894.19;5012626;28;1894;-57
2022/09/30 19:31:23;;;;;;;;;;;;;;;19.35;66.24;99895.41;5012599;28;1625;-57
2022/09/30 19:33:51;;;;;;;;;;;;;;;19.38;66.42;99895.28;5012546;28;863;-57
2022/09/30 19:36:18;;;;;;;;;;;;;;;19.36;66.59;99899.81;5012556;28;882;-57
2022/09/30 19:38:45;;;;;;;;;;;;;;;19.27;67.22;99894.16;5012500;28;1025;-57
2022/09/30 19:41:14;;;;;;;;;;;;;;;19.14;67.73;99902.66;5011907;28;799;-57
2022/09/30 19:43:41;;;;;;;;;;;;;;;19.05;68.69;99894.19;5012635;28;810;-57
2022/09/30 19:46:09;;;;;;;;;;;;;;;19.03;69.41;99891.84;5012166;28;1256;-57
2022/09/30 19:48:36;;;;;;;;;;;;;;;19.10;69.91;99896.41;5011057;28;1964;-57
2022/09/30 19:51:07;;;;;;;;;;;;;;;19.23;70.14;99891.50;5012526;28;864;-57
2022/09/30 19:53:35;;;;;;;;;;;;;;;19.29;70.31;99897.28;5012613;28;823;-57
2022/09/30 19:56:06;;;;;;;;;;;;;;;19.27;70.80;99894.94;5012741;28;799;-57
2022/09/30 19:58:36;;;;;;;;;;;;;;;19.23;71.48;99885.88;5012124;28;902;-57
2022/09/30 20:01:03;;;;;;;;;;;;;;;19.20;71.82;99895.19;5012110;28;926;-57
2022/09/30 20:03:30;;;;;;;;;;;;;;;19.11;72.37;99890.34;5012100;28;846;-57
2022/09/30 20:06:16;;;;;;;;;;;;;;;19.00;72.75;99894.81;5012034;28;940;-57
2022/09/30 20:08:49;;;;;;;;;;;;;;;18.92;73.55;99886.66;5012032;28;1894;-57
2022/09/30 20:11:18;;;;;;;;;;;;;;;19.10;73.21;99891.59;5011991;28;966;-57
2022/09/30 20:13:45;;;;;;;;;;;;;;;19.15;72.96;99881.81;5011994;28;807;-57
2022/09/30 20:16:14;;;;;;;;;;;;;;;19.09;72.95;99883.63;5012034;28;827;-57
2022/09/30 20:18:42;;;;;;;;;;;;;;;18.91;73.49;99889.94;5011708;28;914;-57
2022/09/30 20:24:11;;;;;;;;;;;;;;;18.47;74.78;99893.47;5012094;28;775;-57
2022/09/30 20:26:41;;;;;;;;;;;;;;;18.36;75.24;99896.66;5011839;28;823;-57
2022/09/30 20:29:08;;;;;;;;;;;;;;;18.19;76.34;99897.28;5011784;28;1898;-57
2022/09/30 20:31:36;;;;;;;;;;;;;;;18.17;76.26;99906.13;5010978;28;927;-57
2022/09/30 20:34:03;;;;;;;;;;;;;;;18.06;76.27;99914.88;5011858;28;859;-57
2022/09/30 20:36:31;;;;;;;;;;;;;;;17.91;76.93;99908.22;5011712;28;799;-57